sensor_id;sensor_type;location;lat;lon;timestamp;P1;durP1;ratioP1;P2;durP2;ratioP2
23280;SDS011;11809;56.390;-3.266;2022-09-09T00:01:58;8.45;;;3.22;;
23280;SDS011;11809;56.390;-3.266;2022-09-09T00:10:19;7.85;;;3.00;;
23280;SDS011;11809;56.390;-3.266;2022-09-09T00:15:14;6.93;;;2.80;;
23280;SDS011;11809;56.390;-3.266;2022-09-09T00:18:07;6.68;;;2.90;;
23280;SDS011;11809;56.390;-3.266;2022-09-09T00:23:35;7.55;;;2.95;;
23280;SDS011;11809;56.390;-3.266;2022-09-09T00:28:45;9.95;;;3.13;;
23280;SDS011;11809;56.390;-3.266;2022-09-09T00:31:28;6.85;;;2.83;;
23280;SDS011;11809;56.390;-3.266;2022-09-09T00:34:05;4.72;;;2.92;;
23280;SDS011;11809;56.390;-3.266;2022-09-09T00:36:39;9.00;;;3.20;;
23280;SDS011;11809;56.390;-3.266;2022-09-09T00:42:13;7.13;;;2.97;;
23280;SDS011;11809;56.390;-3.266;2022-09-09T00:44:58;7.57;;;2.83;;
23280;SDS011;11809;56.390;-3.266;2022-09-09T00:47:49;6.05;;;2.65;;
23280;SDS011;11809;56.390;-3.266;2022-09-09T00:53:02;7.28;;;2.90;;
23280;SDS011;11809;56.390;-3.266;2022-09-09T00:55:48;7.07;;;2.97;;
23280;SDS011;11809;56.390;-3.266;2022-09-09T00:58:18;7.30;;;2.80;;
23280;SDS011;11809;56.390;-3.266;2022-09-09T01:03:49;6.38;;;3.05;;
23280;SDS011;11809;56.390;-3.266;2022-09-09T01:09:10;9.18;;;3.15;;
23280;SDS011;11809;56.390;-3.266;2022-09-09T01:12:16;8.90;;;3.15;;
23280;SDS011;11809;56.390;-3.266;2022-09-09T01:14:51;6.55;;;2.97;;
23280;SDS011;11809;56.390;-3.266;2022-09-09T01:17:31;8.27;;;3.30;;
23280;SDS011;11809;56.390;-3.266;2022-09-09T01:20:46;8.60;;;3.25;;
23280;SDS011;11809;56.390;-3.266;2022-09-09T01:28:09;8.73;;;3.20;;
23280;SDS011;11809;56.390;-3.266;2022-09-09T01:30:41;8.73;;;3.83;;
23280;SDS011;11809;56.390;-3.266;2022-09-09T01:33:15;5.50;;;2.88;;
23280;SDS011;11809;56.390;-3.266;2022-09-09T01:38:23;5.22;;;2.80;;
23280;SDS011;11809;56.390;-3.266;2022-09-09T01:40:51;4.78;;;2.58;;
23280;SDS011;11809;56.390;-3.266;2022-09-09T01:43:19;7.97;;;2.85;;
23280;SDS011;11809;56.390;-3.266;2022-09-09T01:45:48;4.13;;;2.47;;
23280;SDS011;11809;56.390;-3.266;2022-09-09T01:48:17;7.03;;;2.70;;
23280;SDS011;11809;56.390;-3.266;2022-09-09T01:50:45;7.85;;;2.78;;
23280;SDS011;11809;56.390;-3.266;2022-09-09T01:53:12;4.50;;;2.53;;
23280;SDS011;11809;56.390;-3.266;2022-09-09T01:55:56;4.85;;;2.80;;
23280;SDS011;11809;56.390;-3.266;2022-09-09T02:04:08;4.25;;;2.58;;
23280;SDS011;11809;56.390;-3.266;2022-09-09T02:06:47;3.97;;;2.20;;
23280;SDS011;11809;56.390;-3.266;2022-09-09T02:09:17;4.90;;;2.60;;
23280;SDS011;11809;56.390;-3.266;2022-09-09T02:11:47;4.13;;;2.40;;
23280;SDS011;11809;56.390;-3.266;2022-09-09T02:14:23;5.15;;;2.33;;
23280;SDS011;11809;56.390;-3.266;2022-09-09T02:16:58;4.70;;;2.40;;
23280;SDS011;11809;56.390;-3.266;2022-09-09T02:19:35;4.38;;;2.30;;
23280;SDS011;11809;56.390;-3.266;2022-09-09T02:22:05;5.72;;;2.55;;
23280;SDS011;11809;56.390;-3.266;2022-09-09T02:24:33;5.28;;;2.60;;
23280;SDS011;11809;56.390;-3.266;2022-09-09T02:27:03;4.72;;;2.35;;
23280;SDS011;11809;56.390;-3.266;2022-09-09T02:29:38;5.75;;;2.30;;
23280;SDS011;11809;56.390;-3.266;2022-09-09T02:32:12;3.70;;;2.15;;
23280;SDS011;11809;56.390;-3.266;2022-09-09T02:37:15;4.22;;;2.47;;
23280;SDS011;11809;56.390;-3.266;2022-09-09T02:39:46;7.80;;;2.72;;
23280;SDS011;11809;56.390;-3.266;2022-09-09T02:42:14;4.35;;;2.20;;
23280;SDS011;11809;56.390;-3.266;2022-09-09T02:44:41;6.07;;;1.83;;
23280;SDS011;11809;56.390;-3.266;2022-09-09T02:55:39;5.22;;;1.80;;
23280;SDS011;11809;56.390;-3.266;2022-09-09T02:58:08;6.65;;;2.53;;
23280;SDS011;11809;56.390;-3.266;2022-09-09T03:00:38;3.42;;;2.05;;
23280;SDS011;11809;56.390;-3.266;2022-09-09T03:03:07;4.97;;;1.95;;
23280;SDS011;11809;56.390;-3.266;2022-09-09T03:05:35;5.60;;;2.20;;
23280;SDS011;11809;56.390;-3.266;2022-09-09T03:08:03;5.30;;;2.40;;
23280;SDS011;11809;56.390;-3.266;2022-09-09T03:10:32;5.50;;;2.50;;
23280;SDS011;11809;56.390;-3.266;2022-09-09T03:12:59;5.38;;;2.25;;
23280;SDS011;11809;56.390;-3.266;2022-09-09T03:15:27;6.07;;;2.22;;
23280;SDS011;11809;56.390;-3.266;2022-09-09T03:17:57;5.25;;;2.13;;
23280;SDS011;11809;56.390;-3.266;2022-09-09T03:20:25;4.40;;;2.13;;
23280;SDS011;11809;56.390;-3.266;2022-09-09T03:22:53;3.80;;;1.80;;
23280;SDS011;11809;56.390;-3.266;2022-09-09T03:25:20;3.70;;;2.20;;
23280;SDS011;11809;56.390;-3.266;2022-09-09T03:27:52;5.85;;;2.20;;
23280;SDS011;11809;56.390;-3.266;2022-09-09T03:30:25;3.20;;;1.92;;
23280;SDS011;11809;56.390;-3.266;2022-09-09T03:32:53;3.90;;;1.85;;
23280;SDS011;11809;56.390;-3.266;2022-09-09T03:35:21;6.93;;;2.10;;
23280;SDS011;11809;56.390;-3.266;2022-09-09T03:37:48;4.45;;;2.03;;
23280;SDS011;11809;56.390;-3.266;2022-09-09T03:40:15;3.55;;;2.00;;
23280;SDS011;11809;56.390;-3.266;2022-09-09T03:42:42;3.88;;;1.60;;
23280;SDS011;11809;56.390;-3.266;2022-09-09T03:45:09;3.97;;;1.80;;
23280;SDS011;11809;56.390;-3.266;2022-09-09T03:47:37;3.90;;;1.80;;
23280;SDS011;11809;56.390;-3.266;2022-09-09T03:50:05;2.35;;;1.48;;
23280;SDS011;11809;56.390;-3.266;2022-09-09T03:52:36;3.45;;;1.60;;
23280;SDS011;11809;56.390;-3.266;2022-09-09T03:55:04;2.90;;;1.52;;
23280;SDS011;11809;56.390;-3.266;2022-09-09T03:57:32;3.47;;;1.45;;
23280;SDS011;11809;56.390;-3.266;2022-09-09T04:00:03;3.63;;;1.70;;
23280;SDS011;11809;56.390;-3.266;2022-09-09T04:02:31;4.65;;;1.50;;
23280;SDS011;11809;56.390;-3.266;2022-09-09T04:04:58;2.72;;;1.30;;
23280;SDS011;11809;56.390;-3.266;2022-09-09T04:07:26;3.92;;;1.60;;
23280;SDS011;11809;56.390;-3.266;2022-09-09T04:09:54;4.88;;;1.52;;
23280;SDS011;11809;56.390;-3.266;2022-09-09T04:12:21;3.00;;;1.50;;
23280;SDS011;11809;56.390;-3.266;2022-09-09T04:14:48;3.50;;;1.30;;
23280;SDS011;11809;56.390;-3.266;2022-09-09T04:17:15;4.43;;;1.52;;
23280;SDS011;11809;56.390;-3.266;2022-09-09T04:19:43;2.72;;;1.35;;
23280;SDS011;11809;56.390;-3.266;2022-09-09T04:22:10;2.25;;;1.15;;
23280;SDS011;11809;56.390;-3.266;2022-09-09T04:24:37;2.60;;;1.38;;
23280;SDS011;11809;56.390;-3.266;2022-09-09T04:27:04;4.53;;;1.70;;
23280;SDS011;11809;56.390;-3.266;2022-09-09T04:29:31;2.55;;;1.20;;
23280;SDS011;11809;56.390;-3.266;2022-09-09T04:31:58;4.38;;;1.90;;
23280;SDS011;11809;56.390;-3.266;2022-09-09T04:34:25;4.63;;;1.60;;
23280;SDS011;11809;56.390;-3.266;2022-09-09T04:36:52;3.70;;;1.80;;
23280;SDS011;11809;56.390;-3.266;2022-09-09T04:39:19;5.55;;;1.50;;
23280;SDS011;11809;56.390;-3.266;2022-09-09T04:41:46;5.30;;;1.35;;
23280;SDS011;11809;56.390;-3.266;2022-09-09T04:44:13;6.03;;;1.60;;
23280;SDS011;11809;56.390;-3.266;2022-09-09T04:46:40;5.63;;;1.92;;
23280;SDS011;11809;56.390;-3.266;2022-09-09T04:49:07;4.88;;;1.58;;
23280;SDS011;11809;56.390;-3.266;2022-09-09T04:51:40;7.10;;;1.58;;
23280;SDS011;11809;56.390;-3.266;2022-09-09T04:54:07;2.17;;;1.40;;
23280;SDS011;11809;56.390;-3.266;2022-09-09T04:56:34;2.85;;;1.50;;
23280;SDS011;11809;56.390;-3.266;2022-09-09T04:59:01;6.82;;;1.60;;
23280;SDS011;11809;56.390;-3.266;2022-09-09T05:01:29;29.48;;;23.70;;
23280;SDS011;11809;56.390;-3.266;2022-09-09T05:03:56;47.35;;;39.35;;
23280;SDS011;11809;56.390;-3.266;2022-09-09T05:06:23;101.05;;;85.03;;
23280;SDS011;11809;56.390;-3.266;2022-09-09T05:08:50;86.50;;;72.18;;
23280;SDS011;11809;56.390;-3.266;2022-09-09T05:11:18;49.55;;;41.95;;
23280;SDS011;11809;56.390;-3.266;2022-09-09T05:13:50;53.45;;;45.00;;
23280;SDS011;11809;56.390;-3.266;2022-09-09T05:16:18;40.90;;;35.17;;
23280;SDS011;11809;56.390;-3.266;2022-09-09T05:18:46;43.15;;;36.65;;
23280;SDS011;11809;56.390;-3.266;2022-09-09T05:21:14;41.25;;;32.78;;
23280;SDS011;11809;56.390;-3.266;2022-09-09T05:23:42;32.05;;;27.80;;
23280;SDS011;11809;56.390;-3.266;2022-09-09T05:26:12;27.75;;;23.05;;
23280;SDS011;11809;56.390;-3.266;2022-09-09T05:28:43;27.90;;;21.70;;
23280;SDS011;11809;56.390;-3.266;2022-09-09T05:31:11;24.95;;;19.38;;
23280;SDS011;11809;56.390;-3.266;2022-09-09T05:33:40;18.90;;;16.45;;
23280;SDS011;11809;56.390;-3.266;2022-09-09T05:36:10;21.95;;;15.18;;
23280;SDS011;11809;56.390;-3.266;2022-09-09T05:38:41;16.60;;;12.50;;
23280;SDS011;11809;56.390;-3.266;2022-09-09T05:41:09;15.07;;;11.90;;
23280;SDS011;11809;56.390;-3.266;2022-09-09T05:43:42;14.23;;;10.43;;
23280;SDS011;11809;56.390;-3.266;2022-09-09T05:46:17;14.30;;;9.07;;
23280;SDS011;11809;56.390;-3.266;2022-09-09T05:48:47;9.75;;;6.88;;
23280;SDS011;11809;56.390;-3.266;2022-09-09T05:51:18;11.00;;;6.55;;
23280;SDS011;11809;56.390;-3.266;2022-09-09T05:53:50;12.43;;;6.22;;
23280;SDS011;11809;56.390;-3.266;2022-09-09T05:56:27;11.32;;;5.65;;
23280;SDS011;11809;56.390;-3.266;2022-09-09T05:58:55;11.00;;;5.28;;
23280;SDS011;11809;56.390;-3.266;2022-09-09T06:01:26;5.35;;;4.30;;
23280;SDS011;11809;56.390;-3.266;2022-09-09T06:03:58;6.85;;;3.92;;
23280;SDS011;11809;56.390;-3.266;2022-09-09T06:06:26;9.65;;;3.92;;
23280;SDS011;11809;56.390;-3.266;2022-09-09T06:08:57;4.93;;;3.35;;
23280;SDS011;11809;56.390;-3.266;2022-09-09T06:11:25;5.38;;;3.45;;
23280;SDS011;11809;56.390;-3.266;2022-09-09T06:13:54;5.82;;;3.03;;
23280;SDS011;11809;56.390;-3.266;2022-09-09T06:16:22;4.97;;;2.95;;
23280;SDS011;11809;56.390;-3.266;2022-09-09T06:18:51;4.47;;;2.70;;
23280;SDS011;11809;56.390;-3.266;2022-09-09T06:21:23;4.75;;;2.35;;
23280;SDS011;11809;56.390;-3.266;2022-09-09T06:23:52;4.85;;;2.45;;
23280;SDS011;11809;56.390;-3.266;2022-09-09T06:26:26;5.95;;;2.30;;
23280;SDS011;11809;56.390;-3.266;2022-09-09T06:31:27;4.30;;;2.15;;
23280;SDS011;11809;56.390;-3.266;2022-09-09T06:33:57;4.75;;;1.83;;
23280;SDS011;11809;56.390;-3.266;2022-09-09T06:36:26;2.90;;;1.77;;
23280;SDS011;11809;56.390;-3.266;2022-09-09T06:38:57;6.97;;;2.28;;
23280;SDS011;11809;56.390;-3.266;2022-09-09T06:41:26;9.32;;;2.35;;
23280;SDS011;11809;56.390;-3.266;2022-09-09T06:43:54;5.28;;;1.65;;
23280;SDS011;11809;56.390;-3.266;2022-09-09T06:46:28;5.00;;;1.60;;
23280;SDS011;11809;56.390;-3.266;2022-09-09T06:48:57;5.50;;;1.92;;
23280;SDS011;11809;56.390;-3.266;2022-09-09T06:51:34;6.88;;;2.10;;
23280;SDS011;11809;56.390;-3.266;2022-09-09T06:54:02;5.90;;;1.63;;
23280;SDS011;11809;56.390;-3.266;2022-09-09T07:01:31;2.70;;;1.52;;
23280;SDS011;11809;56.390;-3.266;2022-09-09T07:04:00;5.70;;;2.03;;
23280;SDS011;11809;56.390;-3.266;2022-09-09T07:06:29;4.43;;;1.63;;
23280;SDS011;11809;56.390;-3.266;2022-09-09T07:09:01;5.60;;;1.80;;
23280;SDS011;11809;56.390;-3.266;2022-09-09T07:11:36;4.38;;;1.67;;
23280;SDS011;11809;56.390;-3.266;2022-09-09T07:14:05;3.45;;;1.67;;
23280;SDS011;11809;56.390;-3.266;2022-09-09T07:16:33;3.05;;;1.48;;
23280;SDS011;11809;56.390;-3.266;2022-09-09T07:19:03;3.42;;;1.58;;
23280;SDS011;11809;56.390;-3.266;2022-09-09T07:21:31;4.65;;;1.50;;
23280;SDS011;11809;56.390;-3.266;2022-09-09T07:23:59;4.43;;;1.20;;
23280;SDS011;11809;56.390;-3.266;2022-09-09T07:26:27;2.95;;;1.25;;
23280;SDS011;11809;56.390;-3.266;2022-09-09T07:28:56;4.07;;;1.75;;
23280;SDS011;11809;56.390;-3.266;2022-09-09T07:33:52;4.35;;;1.60;;
23280;SDS011;11809;56.390;-3.266;2022-09-09T07:36:24;3.95;;;1.45;;
23280;SDS011;11809;56.390;-3.266;2022-09-09T07:39:00;3.47;;;1.70;;
23280;SDS011;11809;56.390;-3.266;2022-09-09T07:44:08;5.43;;;1.63;;
23280;SDS011;11809;56.390;-3.266;2022-09-09T07:46:38;6.22;;;1.45;;
23280;SDS011;11809;56.390;-3.266;2022-09-09T07:49:06;4.82;;;1.98;;
23280;SDS011;11809;56.390;-3.266;2022-09-09T07:51:35;4.72;;;1.58;;
23280;SDS011;11809;56.390;-3.266;2022-09-09T07:54:11;4.00;;;1.55;;
23280;SDS011;11809;56.390;-3.266;2022-09-09T07:56:40;5.50;;;1.85;;
23280;SDS011;11809;56.390;-3.266;2022-09-09T07:59:08;6.47;;;1.73;;
23280;SDS011;11809;56.390;-3.266;2022-09-09T08:01:37;5.00;;;2.03;;
23280;SDS011;11809;56.390;-3.266;2022-09-09T08:04:07;6.45;;;1.90;;
23280;SDS011;11809;56.390;-3.266;2022-09-09T08:06:37;6.10;;;1.90;;
23280;SDS011;11809;56.390;-3.266;2022-09-09T08:09:06;4.38;;;1.70;;
23280;SDS011;11809;56.390;-3.266;2022-09-09T08:11:34;3.90;;;1.88;;
23280;SDS011;11809;56.390;-3.266;2022-09-09T08:14:05;4.37;;;1.73;;
23280;SDS011;11809;56.390;-3.266;2022-09-09T08:16:38;3.92;;;2.00;;
23280;SDS011;11809;56.390;-3.266;2022-09-09T08:19:07;4.90;;;2.13;;
23280;SDS011;11809;56.390;-3.266;2022-09-09T08:21:35;5.32;;;1.60;;
23280;SDS011;11809;56.390;-3.266;2022-09-09T08:24:05;2.80;;;1.40;;
23280;SDS011;11809;56.390;-3.266;2022-09-09T08:26:35;3.67;;;1.63;;
23280;SDS011;11809;56.390;-3.266;2022-09-09T08:29:07;4.65;;;1.60;;
23280;SDS011;11809;56.390;-3.266;2022-09-09T08:31:38;4.30;;;1.55;;
23280;SDS011;11809;56.390;-3.266;2022-09-09T08:34:06;3.65;;;1.80;;
23280;SDS011;11809;56.390;-3.266;2022-09-09T08:36:37;4.65;;;1.63;;
23280;SDS011;11809;56.390;-3.266;2022-09-09T08:39:06;3.80;;;1.50;;
23280;SDS011;11809;56.390;-3.266;2022-09-09T08:44:39;4.10;;;1.58;;
23280;SDS011;11809;56.390;-3.266;2022-09-09T08:58:09;2.97;;;1.30;;
23280;SDS011;11809;56.390;-3.266;2022-09-09T09:03:27;2.72;;;1.38;;
23280;SDS011;11809;56.390;-3.266;2022-09-09T09:08:39;3.00;;;1.35;;
23280;SDS011;11809;56.390;-3.266;2022-09-09T09:11:10;4.78;;;1.50;;
23280;SDS011;11809;56.390;-3.266;2022-09-09T09:13:40;5.93;;;1.60;;
23280;SDS011;11809;56.390;-3.266;2022-09-09T09:19:02;3.05;;;1.50;;
23280;SDS011;11809;56.390;-3.266;2022-09-09T09:21:38;4.03;;;1.50;;
23280;SDS011;11809;56.390;-3.266;2022-09-09T09:24:24;6.13;;;1.67;;
23280;SDS011;11809;56.390;-3.266;2022-09-09T09:27:00;7.00;;;1.83;;
23280;SDS011;11809;56.390;-3.266;2022-09-09T09:29:39;9.07;;;1.85;;
23280;SDS011;11809;56.390;-3.266;2022-09-09T09:32:30;5.38;;;1.70;;
23280;SDS011;11809;56.390;-3.266;2022-09-09T09:35:00;11.10;;;2.20;;
23280;SDS011;11809;56.390;-3.266;2022-09-09T09:37:34;5.80;;;2.03;;
23280;SDS011;11809;56.390;-3.266;2022-09-09T09:40:09;5.60;;;1.98;;
23280;SDS011;11809;56.390;-3.266;2022-09-09T09:42:46;9.60;;;1.88;;
23280;SDS011;11809;56.390;-3.266;2022-09-09T09:47:59;8.20;;;1.90;;
23280;SDS011;11809;56.390;-3.266;2022-09-09T09:50:33;9.32;;;1.90;;
23280;SDS011;11809;56.390;-3.266;2022-09-09T09:53:04;7.57;;;2.05;;
23280;SDS011;11809;56.390;-3.266;2022-09-09T09:55:33;9.88;;;2.33;;
23280;SDS011;11809;56.390;-3.266;2022-09-09T09:58:03;14.07;;;3.33;;
23280;SDS011;11809;56.390;-3.266;2022-09-09T10:00:33;8.02;;;2.20;;
23280;SDS011;11809;56.390;-3.266;2022-09-09T10:05:44;8.02;;;2.30;;
23280;SDS011;11809;56.390;-3.266;2022-09-09T10:08:13;9.18;;;2.53;;
23280;SDS011;11809;56.390;-3.266;2022-09-09T10:18:52;8.02;;;2.47;;
23280;SDS011;11809;56.390;-3.266;2022-09-09T10:36:16;9.38;;;2.20;;
23280;SDS011;11809;56.390;-3.266;2022-09-09T10:38:55;4.88;;;1.58;;
23280;SDS011;11809;56.390;-3.266;2022-09-09T10:47:12;11.98;;;2.10;;
23280;SDS011;11809;56.390;-3.266;2022-09-09T10:52:22;9.95;;;2.08;;
23280;SDS011;11809;56.390;-3.266;2022-09-09T11:00:23;10.45;;;2.20;;
23280;SDS011;11809;56.390;-3.266;2022-09-09T11:03:01;10.38;;;1.98;;
23280;SDS011;11809;56.390;-3.266;2022-09-09T11:05:42;11.93;;;2.08;;
23280;SDS011;11809;56.390;-3.266;2022-09-09T11:08:17;11.30;;;2.78;;
23280;SDS011;11809;56.390;-3.266;2022-09-09T11:10:55;12.75;;;2.88;;
23280;SDS011;11809;56.390;-3.266;2022-09-09T11:16:38;10.82;;;2.03;;
23280;SDS011;11809;56.390;-3.266;2022-09-09T11:19:54;9.25;;;2.20;;
23280;SDS011;11809;56.390;-3.266;2022-09-09T11:22:08;8.98;;;1.92;;
23280;SDS011;11809;56.390;-3.266;2022-09-09T11:34:07;7.15;;;2.25;;
23280;SDS011;11809;56.390;-3.266;2022-09-09T11:42:21;7.85;;;1.92;;
23280;SDS011;11809;56.390;-3.266;2022-09-09T11:44:50;9.32;;;1.88;;
23280;SDS011;11809;56.390;-3.266;2022-09-09T11:47:24;7.38;;;1.70;;
23280;SDS011;11809;56.390;-3.266;2022-09-09T11:50:08;5.55;;;1.80;;
23280;SDS011;11809;56.390;-3.266;2022-09-09T12:00:40;9.75;;;1.73;;
23280;SDS011;11809;56.390;-3.266;2022-09-09T12:08:41;7.63;;;1.80;;
23280;SDS011;11809;56.390;-3.266;2022-09-09T12:11:12;6.22;;;1.60;;
23280;SDS011;11809;56.390;-3.266;2022-09-09T12:13:55;5.07;;;1.60;;
23280;SDS011;11809;56.390;-3.266;2022-09-09T12:16:32;5.90;;;1.52;;
23280;SDS011;11809;56.390;-3.266;2022-09-09T12:27:40;5.82;;;1.67;;
23280;SDS011;11809;56.390;-3.266;2022-09-09T12:32:44;6.35;;;1.58;;
23280;SDS011;11809;56.390;-3.266;2022-09-09T12:35:12;5.20;;;1.63;;
23280;SDS011;11809;56.390;-3.266;2022-09-09T12:40:21;7.03;;;1.70;;
23280;SDS011;11809;56.390;-3.266;2022-09-09T12:42:50;5.68;;;1.48;;
23280;SDS011;11809;56.390;-3.266;2022-09-09T12:45:19;7.38;;;1.67;;
23280;SDS011;11809;56.390;-3.266;2022-09-09T12:47:53;7.05;;;1.88;;
23280;SDS011;11809;56.390;-3.266;2022-09-09T12:50:28;3.80;;;1.73;;
23280;SDS011;11809;56.390;-3.266;2022-09-09T12:52:58;7.15;;;2.05;;
23280;SDS011;11809;56.390;-3.266;2022-09-09T12:57:57;6.13;;;1.75;;
23280;SDS011;11809;56.390;-3.266;2022-09-09T13:00:26;3.83;;;1.30;;
23280;SDS011;11809;56.390;-3.266;2022-09-09T13:03:00;2.40;;;1.17;;
23280;SDS011;11809;56.390;-3.266;2022-09-09T13:05:35;6.85;;;1.40;;
23280;SDS011;11809;56.390;-3.266;2022-09-09T13:08:09;3.22;;;1.27;;
23280;SDS011;11809;56.390;-3.266;2022-09-09T13:10:46;5.55;;;1.42;;
23280;SDS011;11809;56.390;-3.266;2022-09-09T13:13:28;4.93;;;1.52;;
23280;SDS011;11809;56.390;-3.266;2022-09-09T13:16:02;5.82;;;1.80;;
23280;SDS011;11809;56.390;-3.266;2022-09-09T13:18:35;3.47;;;1.33;;
23280;SDS011;11809;56.390;-3.266;2022-09-09T13:21:04;2.97;;;1.10;;
23280;SDS011;11809;56.390;-3.266;2022-09-09T13:23:32;2.42;;;1.00;;
23280;SDS011;11809;56.390;-3.266;2022-09-09T13:26:03;5.63;;;1.58;;
23280;SDS011;11809;56.390;-3.266;2022-09-09T13:28:34;5.78;;;1.50;;
23280;SDS011;11809;56.390;-3.266;2022-09-09T13:31:02;4.50;;;1.33;;
23280;SDS011;11809;56.390;-3.266;2022-09-09T13:33:46;7.10;;;1.50;;
23280;SDS011;11809;56.390;-3.266;2022-09-09T13:36:13;4.68;;;1.13;;
23280;SDS011;11809;56.390;-3.266;2022-09-09T13:38:56;5.53;;;1.65;;
23280;SDS011;11809;56.390;-3.266;2022-09-09T13:41:30;5.45;;;1.67;;
23280;SDS011;11809;56.390;-3.266;2022-09-09T13:44:00;6.85;;;1.17;;
23280;SDS011;11809;56.390;-3.266;2022-09-09T13:46:34;12.15;;;1.50;;
23280;SDS011;11809;56.390;-3.266;2022-09-09T13:54:08;3.83;;;1.30;;
23280;SDS011;11809;56.390;-3.266;2022-09-09T13:56:37;6.93;;;1.25;;
23280;SDS011;11809;56.390;-3.266;2022-09-09T13:59:06;3.42;;;1.45;;
23280;SDS011;11809;56.390;-3.266;2022-09-09T14:01:38;3.67;;;1.20;;
23280;SDS011;11809;56.390;-3.266;2022-09-09T14:04:05;6.78;;;1.40;;
23280;SDS011;11809;56.390;-3.266;2022-09-09T14:06:33;3.75;;;1.10;;
23280;SDS011;11809;56.390;-3.266;2022-09-09T14:09:05;4.20;;;1.25;;
23280;SDS011;11809;56.390;-3.266;2022-09-09T14:11:32;4.03;;;1.20;;
23280;SDS011;11809;56.390;-3.266;2022-09-09T14:14:00;5.65;;;1.33;;
23280;SDS011;11809;56.390;-3.266;2022-09-09T14:16:27;5.05;;;1.10;;
23280;SDS011;11809;56.390;-3.266;2022-09-09T14:18:54;2.72;;;1.20;;
23280;SDS011;11809;56.390;-3.266;2022-09-09T14:23:52;3.30;;;1.20;;
23280;SDS011;11809;56.390;-3.266;2022-09-09T14:26:23;3.60;;;1.17;;
23280;SDS011;11809;56.390;-3.266;2022-09-09T14:28:50;2.88;;;0.93;;
23280;SDS011;11809;56.390;-3.266;2022-09-09T14:31:21;6.85;;;1.40;;
23280;SDS011;11809;56.390;-3.266;2022-09-09T14:33:50;3.55;;;1.50;;
23280;SDS011;11809;56.390;-3.266;2022-09-09T14:36:17;6.82;;;1.15;;
23280;SDS011;11809;56.390;-3.266;2022-09-09T14:38:45;2.50;;;1.02;;
23280;SDS011;11809;56.390;-3.266;2022-09-09T14:41:13;6.18;;;1.15;;
23280;SDS011;11809;56.390;-3.266;2022-09-09T14:43:45;3.95;;;1.05;;
23280;SDS011;11809;56.390;-3.266;2022-09-09T14:46:14;4.55;;;1.02;;
23280;SDS011;11809;56.390;-3.266;2022-09-09T14:48:43;4.88;;;1.10;;
23280;SDS011;11809;56.390;-3.266;2022-09-09T14:51:12;4.53;;;0.95;;
23280;SDS011;11809;56.390;-3.266;2022-09-09T14:53:42;3.47;;;1.15;;
23280;SDS011;11809;56.390;-3.266;2022-09-09T14:56:11;5.05;;;1.30;;
23280;SDS011;11809;56.390;-3.266;2022-09-09T14:58:41;5.50;;;1.20;;
23280;SDS011;11809;56.390;-3.266;2022-09-09T15:01:09;8.77;;;1.48;;
23280;SDS011;11809;56.390;-3.266;2022-09-09T15:03:39;4.03;;;1.13;;
23280;SDS011;11809;56.390;-3.266;2022-09-09T15:06:07;2.58;;;0.85;;
23280;SDS011;11809;56.390;-3.266;2022-09-09T15:08:36;5.88;;;1.20;;
23280;SDS011;11809;56.390;-3.266;2022-09-09T15:11:08;2.20;;;0.98;;
23280;SDS011;11809;56.390;-3.266;2022-09-09T15:13:37;4.82;;;0.93;;
23280;SDS011;11809;56.390;-3.266;2022-09-09T15:16:13;5.57;;;1.15;;
23280;SDS011;11809;56.390;-3.266;2022-09-09T15:18:42;8.73;;;1.27;;
23280;SDS011;11809;56.390;-3.266;2022-09-09T15:23:39;7.03;;;1.10;;
23280;SDS011;11809;56.390;-3.266;2022-09-09T15:26:06;6.97;;;1.00;;
23280;SDS011;11809;56.390;-3.266;2022-09-09T15:28:34;4.78;;;1.13;;
23280;SDS011;11809;56.390;-3.266;2022-09-09T15:31:07;5.15;;;1.08;;
23280;SDS011;11809;56.390;-3.266;2022-09-09T15:33:37;4.90;;;1.17;;
23280;SDS011;11809;56.390;-3.266;2022-09-09T15:36:14;3.05;;;0.90;;
23280;SDS011;11809;56.390;-3.266;2022-09-09T15:38:51;4.18;;;1.20;;
23280;SDS011;11809;56.390;-3.266;2022-09-09T15:41:19;2.65;;;1.02;;
23280;SDS011;11809;56.390;-3.266;2022-09-09T15:43:52;5.32;;;0.93;;
23280;SDS011;11809;56.390;-3.266;2022-09-09T15:46:33;6.07;;;1.00;;
23280;SDS011;11809;56.390;-3.266;2022-09-09T15:49:08;5.30;;;1.15;;
23280;SDS011;11809;56.390;-3.266;2022-09-09T15:51:37;4.10;;;1.20;;
23280;SDS011;11809;56.390;-3.266;2022-09-09T15:54:13;3.30;;;0.85;;
23280;SDS011;11809;56.390;-3.266;2022-09-09T15:56:43;2.72;;;1.00;;
23280;SDS011;11809;56.390;-3.266;2022-09-09T15:59:12;6.70;;;1.33;;
23280;SDS011;11809;56.390;-3.266;2022-09-09T16:01:41;5.20;;;1.23;;
23280;SDS011;11809;56.390;-3.266;2022-09-09T16:04:09;5.53;;;1.00;;
23280;SDS011;11809;56.390;-3.266;2022-09-09T16:06:37;3.70;;;0.90;;
23280;SDS011;11809;56.390;-3.266;2022-09-09T16:09:05;3.35;;;1.20;;
23280;SDS011;11809;56.390;-3.266;2022-09-09T16:11:34;15.23;;;1.40;;
23280;SDS011;11809;56.390;-3.266;2022-09-09T16:14:03;9.80;;;1.20;;
23280;SDS011;11809;56.390;-3.266;2022-09-09T16:16:30;8.13;;;1.17;;
23280;SDS011;11809;56.390;-3.266;2022-09-09T16:18:58;4.20;;;1.25;;
23280;SDS011;11809;56.390;-3.266;2022-09-09T16:21:32;7.97;;;1.92;;
23280;SDS011;11809;56.390;-3.266;2022-09-09T16:24:02;9.82;;;1.45;;
23280;SDS011;11809;56.390;-3.266;2022-09-09T16:26:31;4.80;;;1.20;;
23280;SDS011;11809;56.390;-3.266;2022-09-09T16:29:01;7.53;;;1.15;;
23280;SDS011;11809;56.390;-3.266;2022-09-09T16:31:29;3.97;;;1.02;;
23280;SDS011;11809;56.390;-3.266;2022-09-09T16:33:58;12.02;;;1.60;;
23280;SDS011;11809;56.390;-3.266;2022-09-09T16:36:29;18.48;;;1.48;;
23280;SDS011;11809;56.390;-3.266;2022-09-09T16:38:58;7.95;;;1.30;;
23280;SDS011;11809;56.390;-3.266;2022-09-09T16:41:27;8.57;;;1.30;;
23280;SDS011;11809;56.390;-3.266;2022-09-09T16:43:55;9.13;;;1.30;;
23280;SDS011;11809;56.390;-3.266;2022-09-09T16:46:25;4.82;;;1.48;;
23280;SDS011;11809;56.390;-3.266;2022-09-09T16:48:55;8.35;;;1.20;;
23280;SDS011;11809;56.390;-3.266;2022-09-09T16:51:26;6.50;;;1.45;;
23280;SDS011;11809;56.390;-3.266;2022-09-09T16:53:53;7.72;;;1.00;;
23280;SDS011;11809;56.390;-3.266;2022-09-09T16:56:22;4.78;;;1.23;;
23280;SDS011;11809;56.390;-3.266;2022-09-09T16:58:54;2.30;;;0.93;;
23280;SDS011;11809;56.390;-3.266;2022-09-09T17:01:27;2.90;;;1.20;;
23280;SDS011;11809;56.390;-3.266;2022-09-09T17:04:02;3.97;;;1.13;;
23280;SDS011;11809;56.390;-3.266;2022-09-09T17:06:32;5.30;;;1.20;;
23280;SDS011;11809;56.390;-3.266;2022-09-09T17:09:05;3.72;;;1.00;;
23280;SDS011;11809;56.390;-3.266;2022-09-09T17:11:34;3.70;;;1.00;;
23280;SDS011;11809;56.390;-3.266;2022-09-09T17:14:02;5.13;;;1.10;;
23280;SDS011;11809;56.390;-3.266;2022-09-09T17:16:30;4.00;;;0.90;;
23280;SDS011;11809;56.390;-3.266;2022-09-09T17:18:58;1.10;;;0.77;;
23280;SDS011;11809;56.390;-3.266;2022-09-09T17:21:26;3.10;;;1.10;;
23280;SDS011;11809;56.390;-3.266;2022-09-09T17:23:55;2.55;;;0.90;;
23280;SDS011;11809;56.390;-3.266;2022-09-09T17:26:24;2.38;;;0.90;;
23280;SDS011;11809;56.390;-3.266;2022-09-09T17:28:54;3.85;;;0.82;;
23280;SDS011;11809;56.390;-3.266;2022-09-09T17:31:25;2.22;;;1.00;;
23280;SDS011;11809;56.390;-3.266;2022-09-09T17:33:54;0.93;;;0.77;;
23280;SDS011;11809;56.390;-3.266;2022-09-09T17:36:26;2.40;;;0.90;;
23280;SDS011;11809;56.390;-3.266;2022-09-09T17:38:58;3.08;;;1.00;;
23280;SDS011;11809;56.390;-3.266;2022-09-09T17:41:34;6.45;;;1.00;;
23280;SDS011;11809;56.390;-3.266;2022-09-09T17:44:06;8.57;;;1.25;;
23280;SDS011;11809;56.390;-3.266;2022-09-09T17:46:40;3.80;;;1.25;;
23280;SDS011;11809;56.390;-3.266;2022-09-09T17:49:09;16.15;;;1.92;;
23280;SDS011;11809;56.390;-3.266;2022-09-09T17:51:39;4.65;;;1.40;;
23280;SDS011;11809;56.390;-3.266;2022-09-09T17:54:09;14.60;;;1.55;;
23280;SDS011;11809;56.390;-3.266;2022-09-09T17:56:39;3.63;;;1.13;;
23280;SDS011;11809;56.390;-3.266;2022-09-09T17:59:08;5.32;;;1.33;;
23280;SDS011;11809;56.390;-3.266;2022-09-09T18:01:39;8.68;;;1.30;;